createdAt,value
2018-09-28T00:00:43.483Z,85.40
2018-09-28T00:03:11.823Z,86.00
2018-09-28T00:05:40.237Z,85.10
2018-09-28T00:08:08.584Z,84.30
2018-09-28T00:10:36.897Z,84.60
2018-09-28T00:13:05.243Z,85.30
2018-09-28T00:15:33.612Z,84.40
2018-09-28T00:18:01.942Z,84.70
2018-09-28T00:20:30.282Z,85.00
2018-09-28T00:22:58.637Z,84.60
2018-09-28T00:25:26.986Z,84.50
2018-09-28T00:27:55.399Z,84.90
2018-09-28T00:30:23.712Z,84.40
2018-09-28T00:32:52.010Z,84.40
2018-09-28T00:35:20.344Z,84.00
2018-09-28T00:37:48.678Z,84.50
2018-09-28T00:40:16.985Z,84.30
2018-09-28T00:42:45.298Z,84.60
2018-09-28T00:45:13.661Z,84.20
2018-09-28T00:47:42.077Z,84.20
2018-09-28T00:50:10.421Z,84.10
2018-09-28T00:52:38.706Z,84.30
2018-09-28T00:55:07.215Z,84.00
2018-09-28T00:57:35.543Z,84.20
2018-09-28T01:00:03.951Z,84.20
2018-09-28T01:02:32.294Z,84.30
2018-09-28T01:05:00.631Z,83.90
2018-09-28T01:07:28.950Z,84.10
2018-09-28T01:09:57.262Z,83.00
2018-09-28T01:12:25.572Z,82.70
2018-09-28T01:14:54.082Z,82.90
2018-09-28T01:17:22.466Z,82.60
2018-09-28T01:19:50.834Z,83.30
2018-09-28T01:22:19.134Z,82.50
2018-09-28T01:24:47.447Z,82.60
2018-09-28T01:27:15.816Z,83.00
2018-09-28T01:29:44.175Z,82.50
2018-09-28T01:32:12.515Z,82.00
2018-09-28T01:34:40.871Z,82.00
2018-09-28T01:37:09.278Z,82.20
2018-09-28T01:39:37.650Z,81.60
2018-09-28T01:42:06.031Z,81.60
2018-09-28T01:44:34.369Z,81.40
2018-09-28T01:47:02.661Z,80.60
2018-09-28T01:49:30.970Z,80.00
2018-09-28T01:51:59.305Z,79.90
2018-09-28T01:54:27.627Z,80.00
2018-09-28T01:56:55.936Z,79.70
2018-09-28T01:59:25.340Z,79.90
2018-09-28T02:01:53.642Z,79.90
2018-09-28T02:04:21.982Z,79.60
2018-09-28T02:06:50.290Z,78.90
2018-09-28T02:09:18.634Z,78.90
2018-09-28T02:11:46.947Z,78.40
2018-09-28T02:14:15.251Z,77.80
2018-09-28T02:16:43.629Z,77.70
2018-09-28T02:19:11.997Z,77.70
2018-09-28T02:21:40.344Z,77.40
2018-09-28T02:24:08.773Z,77.40
2018-09-28T02:26:37.140Z,77.20
2018-09-28T02:29:05.575Z,77.10
2018-09-28T02:31:33.883Z,77.20
2018-09-28T02:34:02.215Z,77.10
2018-09-28T02:36:30.533Z,76.70
2018-09-28T02:38:58.845Z,76.50
2018-09-28T02:41:27.126Z,76.10
2018-09-28T02:43:55.458Z,75.50
2018-09-28T02:46:23.806Z,75.20
2018-09-28T02:48:52.128Z,74.60
2018-09-28T02:51:20.427Z,74.30
2018-09-28T02:53:48.704Z,73.90
2018-09-28T02:56:17.023Z,73.80
2018-09-28T02:58:45.316Z,73.40
2018-09-28T03:01:13.668Z,73.40
2018-09-28T03:03:42.012Z,73.70
2018-09-28T03:06:10.371Z,73.00
2018-09-28T03:08:38.628Z,73.30
2018-09-28T03:11:07.037Z,73.00
2018-09-28T03:13:35.356Z,73.20
2018-09-28T03:16:03.705Z,72.80
2018-09-28T03:18:32.009Z,73.10
2018-09-28T03:21:00.325Z,72.60
2018-09-28T03:23:28.611Z,73.10
2018-09-28T03:25:56.969Z,72.90
2018-09-28T03:28:25.227Z,72.70
2018-09-28T03:30:53.538Z,72.10
2018-09-28T03:33:21.812Z,73.30
2018-09-28T03:35:50.160Z,72.90
2018-09-28T03:38:18.437Z,73.10
2018-09-28T03:40:46.772Z,72.90
2018-09-28T03:43:15.078Z,73.20
2018-09-28T03:45:43.391Z,73.10
2018-09-28T03:48:11.786Z,73.10
2018-09-28T03:50:40.125Z,73.20
2018-09-28T03:53:08.443Z,73.30
2018-09-28T03:55:36.830Z,73.70
2018-09-28T03:58:05.119Z,73.70
2018-09-28T04:00:33.465Z,74.60
2018-09-28T04:03:01.795Z,74.40
2018-09-28T04:05:30.120Z,74.90
2018-09-28T04:07:58.455Z,75.00
2018-09-28T04:10:26.799Z,75.30
2018-09-28T04:12:55.081Z,76.00
2018-09-28T04:15:24.262Z,75.80
2018-09-28T04:17:52.860Z,75.70
2018-09-28T04:20:21.191Z,76.20
2018-09-28T04:22:49.580Z,75.90
2018-09-28T04:25:17.889Z,76.30
2018-09-28T04:27:46.210Z,76.40
2018-09-28T04:30:14.540Z,76.00
2018-09-28T04:32:42.869Z,76.50
2018-09-28T04:35:11.217Z,75.50
2018-09-28T04:37:39.565Z,75.70
2018-09-28T04:40:07.889Z,76.30
2018-09-28T04:42:36.275Z,76.90
2018-09-28T04:45:04.659Z,76.70
2018-09-28T04:47:33.059Z,76.60
2018-09-28T04:50:01.348Z,76.90
2018-09-28T04:52:29.681Z,77.20
2018-09-28T04:54:58.086Z,77.30
2018-09-28T04:57:26.443Z,77.50
2018-09-28T04:59:54.760Z,77.80
2018-09-28T05:02:23.115Z,78.30
2018-09-28T05:04:51.438Z,78.20
2018-09-28T05:07:19.734Z,78.20
2018-09-28T05:09:48.062Z,78.30
2018-09-28T05:12:16.358Z,78.30
2018-09-28T05:14:44.637Z,78.30
2018-09-28T05:17:12.956Z,78.30
2018-09-28T05:19:41.245Z,78.60
2018-09-28T05:22:09.631Z,79.20
2018-09-28T05:24:37.918Z,78.60
2018-09-28T05:27:06.265Z,78.60
2018-09-28T05:29:34.611Z,78.90
2018-09-28T05:32:03.071Z,79.30
2018-09-28T05:34:31.296Z,79.00
2018-09-28T05:36:59.695Z,79.00
2018-09-28T05:39:28.051Z,79.20
2018-09-28T05:41:56.332Z,79.20
2018-09-28T05:44:24.647Z,80.00
2018-09-28T05:46:52.960Z,79.00
2018-09-28T05:49:21.240Z,79.10
2018-09-28T05:51:49.561Z,79.20
2018-09-28T05:54:17.842Z,79.20
2018-09-28T05:56:46.148Z,79.70
2018-09-28T05:59:19.741Z,80.00
2018-09-28T06:01:53.673Z,80.10
2018-09-28T06:04:27.348Z,80.80
2018-09-28T06:06:55.629Z,80.80
2018-09-28T06:09:23.905Z,81.00
2018-09-28T06:11:52.192Z,81.20
2018-09-28T06:14:20.486Z,81.40
2018-09-28T06:16:48.792Z,81.60
2018-09-28T06:19:17.097Z,81.60
2018-09-28T06:21:45.489Z,81.60
2018-09-28T06:24:13.850Z,83.10
2018-09-28T06:26:42.125Z,85.20
2018-09-28T06:29:10.430Z,83.20
2018-09-28T06:31:38.764Z,81.80
2018-09-28T06:34:07.072Z,81.50
2018-09-28T06:36:35.396Z,81.50
2018-09-28T06:39:04.983Z,81.90
2018-09-28T06:41:33.277Z,81.90
2018-09-28T06:44:01.554Z,82.20
2018-09-28T06:46:29.843Z,81.70
2018-09-28T06:48:58.198Z,81.50
2018-09-28T06:51:26.606Z,81.30
2018-09-28T06:53:54.844Z,78.60
2018-09-28T06:56:23.199Z,76.60
2018-09-28T06:58:51.488Z,74.50
2018-09-28T07:01:19.779Z,72.70
2018-09-28T07:03:48.105Z,72.70
2018-09-28T07:06:16.409Z,72.30
2018-09-28T07:08:44.699Z,71.70
2018-09-28T07:11:13.045Z,70.30
2018-09-28T07:13:41.377Z,69.60
2018-09-28T07:16:09.751Z,69.20
2018-09-28T07:18:38.039Z,68.70
2018-09-28T07:21:06.460Z,67.60
2018-09-28T07:23:34.777Z,66.30
2018-09-28T07:26:03.071Z,66.30
2018-09-28T07:28:31.404Z,66.00
2018-09-28T07:30:59.690Z,65.90
2018-09-28T07:33:27.985Z,65.10
2018-09-28T07:35:56.278Z,65.10
2018-09-28T07:38:24.595Z,64.20
2018-09-28T07:40:52.871Z,64.10
2018-09-28T07:43:21.763Z,63.50
2018-09-28T07:45:50.148Z,62.70
2018-09-28T07:48:18.493Z,61.20
2018-09-28T07:50:46.764Z,59.70
2018-09-28T07:53:15.113Z,58.20
2018-09-28T07:55:43.489Z,58.40
2018-09-28T07:58:11.779Z,58.20
2018-09-28T08:00:40.081Z,58.00
2018-09-28T08:03:08.740Z,58.80
2018-09-28T08:05:40.943Z,58.50
2018-09-28T08:08:09.258Z,58.10
2018-09-28T08:10:38.198Z,57.80
2018-09-28T08:13:06.629Z,57.80
2018-09-28T08:15:34.971Z,56.20
2018-09-28T08:18:03.422Z,55.40
2018-09-28T08:20:31.814Z,54.30
2018-09-28T08:23:00.475Z,54.20
2018-09-28T08:25:29.129Z,53.50
2018-09-28T08:27:57.767Z,54.30
2018-09-28T08:30:26.261Z,54.30
2018-09-28T08:32:54.708Z,53.00
2018-09-28T08:35:23.210Z,52.50
2018-09-28T08:37:51.686Z,51.20
2018-09-28T08:40:20.311Z,50.20
2018-09-28T08:42:48.868Z,48.60
2018-09-28T08:45:17.449Z,47.70
2018-09-28T08:47:45.945Z,46.70
2018-09-28T08:50:14.482Z,46.20
2018-09-28T08:52:43.031Z,46.10
2018-09-28T08:55:11.617Z,46.60
2018-09-28T08:57:40.193Z,46.30
2018-09-28T09:00:09.029Z,45.20
2018-09-28T09:02:37.610Z,44.60
2018-09-28T09:05:06.125Z,43.80
2018-09-28T09:07:34.833Z,44.20
2018-09-28T09:10:03.334Z,45.00
2018-09-28T09:12:31.796Z,45.60
2018-09-28T09:15:00.433Z,45.70
2018-09-28T09:17:29.010Z,45.60
2018-09-28T09:19:57.588Z,46.40
2018-09-28T09:22:26.169Z,46.00
2018-09-28T09:24:54.828Z,45.80
2018-09-28T09:27:23.431Z,45.30
2018-09-28T09:29:52.524Z,45.70
2018-09-28T09:32:21.587Z,44.10
2018-09-28T09:34:50.280Z,42.70
2018-09-28T09:37:18.937Z,41.20
2018-09-28T09:39:47.613Z,39.50
2018-09-28T09:42:16.098Z,38.70
2018-09-28T09:44:44.785Z,39.30
2018-09-28T09:47:13.439Z,40.10
2018-09-28T09:49:42.255Z,41.00
2018-09-28T09:52:10.929Z,40.70
2018-09-28T09:54:39.594Z,40.40
2018-09-28T09:57:08.145Z,42.10
2018-09-28T09:59:36.801Z,41.50
2018-09-28T10:02:10.844Z,40.90
2018-09-28T10:04:39.466Z,39.50
2018-09-28T10:07:08.284Z,39.00
2018-09-28T10:09:36.974Z,38.40
2018-09-28T10:12:05.619Z,37.70
2018-09-28T10:14:34.377Z,36.90
2018-09-28T10:17:02.933Z,36.90
2018-09-28T10:19:31.845Z,35.90
2018-09-28T10:22:00.399Z,35.50
2018-09-28T10:24:28.985Z,34.60
2018-09-28T10:26:57.412Z,34.90
2018-09-28T10:29:25.945Z,34.70
2018-09-28T10:31:54.296Z,34.00
2018-09-28T10:34:22.829Z,34.00
2018-09-28T10:36:51.258Z,33.40
2018-09-28T10:39:19.807Z,31.40
2018-09-28T10:41:48.216Z,31.20
2018-09-28T10:44:16.730Z,30.50
2018-09-28T10:46:45.222Z,31.60
2018-09-28T10:49:13.709Z,31.40
2018-09-28T10:51:42.544Z,31.20
2018-09-28T10:54:11.258Z,30.10
2018-09-28T10:56:39.879Z,30.00
2018-09-28T10:59:08.750Z,30.40
2018-09-28T11:01:37.432Z,29.80
2018-09-28T11:04:05.873Z,30.00
2018-09-28T11:06:34.318Z,30.10
2018-09-28T11:09:02.790Z,30.30
2018-09-28T11:11:31.168Z,30.10
2018-09-28T11:13:59.649Z,30.00
2018-09-28T11:16:28.079Z,29.40
2018-09-28T11:18:56.593Z,29.30
2018-09-28T11:21:25.061Z,28.80
2018-09-28T11:23:53.666Z,28.50
2018-09-28T11:26:22.116Z,28.90
2018-09-28T11:28:50.573Z,28.30
2018-09-28T11:31:19.108Z,28.20
2018-09-28T11:33:47.711Z,28.40
2018-09-28T11:36:16.203Z,28.30
2018-09-28T11:38:44.720Z,29.30
2018-09-28T11:41:13.375Z,29.40
2018-09-28T11:43:41.775Z,29.70
2018-09-28T11:46:10.257Z,30.00
2018-09-28T11:48:38.711Z,30.60
2018-09-28T11:51:07.190Z,30.60
2018-09-28T11:53:35.628Z,30.30
2018-09-28T11:56:04.099Z,29.90
2018-09-28T11:58:32.469Z,30.00
2018-09-28T12:01:00.912Z,31.40
2018-09-28T12:03:29.354Z,31.30
2018-09-28T12:05:57.760Z,32.10
2018-09-28T12:08:26.128Z,31.50
2018-09-28T12:10:54.601Z,30.00
2018-09-28T12:13:23.072Z,30.50
2018-09-28T12:15:51.450Z,29.80
2018-09-28T12:18:20.020Z,30.00
2018-09-28T12:20:48.730Z,30.40
2018-09-28T12:23:18.123Z,30.70
2018-09-28T12:25:46.539Z,31.10
2018-09-28T12:28:15.115Z,31.70
2018-09-28T12:30:43.569Z,32.30
2018-09-28T12:33:11.958Z,31.00
2018-09-28T12:35:40.542Z,30.60
2018-09-28T12:38:09.138Z,30.00
2018-09-28T12:40:37.549Z,28.10
2018-09-28T12:43:07.043Z,27.80
2018-09-28T12:45:35.462Z,27.40
2018-09-28T12:48:03.942Z,26.90
2018-09-28T12:50:32.721Z,27.00
2018-09-28T12:53:01.176Z,26.70
2018-09-28T12:55:29.626Z,27.10
2018-09-28T12:57:58.140Z,27.10
2018-09-28T13:00:26.711Z,26.90
2018-09-28T13:03:06.517Z,26.80
2018-09-28T13:08:37.060Z,27.20
2018-09-28T13:11:05.541Z,27.50
2018-09-28T13:13:33.892Z,28.20
2018-09-28T13:16:02.260Z,27.40
2018-09-28T13:18:30.671Z,27.50
2018-09-28T13:20:59.029Z,26.20
2018-09-28T13:23:27.424Z,26.20
2018-09-28T13:25:55.837Z,26.50
2018-09-28T13:28:24.259Z,26.80
2018-09-28T13:30:52.765Z,26.10
2018-09-28T13:33:21.126Z,26.50
2018-09-28T13:35:49.479Z,26.80
2018-09-28T13:38:17.874Z,27.50
2018-09-28T13:40:46.339Z,28.60
2018-09-28T13:43:14.884Z,28.50
2018-09-28T13:45:43.236Z,29.50
2018-09-28T13:48:11.658Z,29.30
2018-09-28T13:50:39.992Z,29.80
2018-09-28T13:53:08.358Z,29.60
2018-09-28T13:55:36.763Z,29.20
2018-09-28T13:58:17.077Z,29.40
2018-09-28T14:00:45.490Z,28.80
2018-09-28T14:03:13.811Z,28.30
2018-09-28T14:05:42.216Z,29.10
2018-09-28T14:08:10.628Z,29.30
2018-09-28T14:10:38.945Z,29.80
2018-09-28T14:13:07.551Z,29.60
2018-09-28T14:15:35.920Z,29.80
2018-09-28T14:18:04.325Z,29.10
2018-09-28T14:20:36.167Z,29.80
2018-09-28T14:23:04.532Z,29.90
2018-09-28T14:25:33.068Z,29.40
2018-09-28T14:28:01.465Z,29.00
2018-09-28T14:30:30.643Z,29.00
2018-09-28T14:32:59.882Z,29.10
2018-09-28T14:35:29.093Z,29.70
2018-09-28T14:37:58.461Z,29.80
2018-09-28T14:40:27.734Z,30.60
2018-09-28T14:42:56.954Z,31.70
2018-09-28T14:45:26.159Z,31.80
2018-09-28T14:47:56.022Z,32.60
2018-09-28T14:50:25.147Z,33.20
2018-09-28T14:52:54.158Z,32.60
2018-09-28T14:55:22.675Z,31.70
2018-09-28T14:57:51.046Z,32.90
2018-09-28T15:00:19.921Z,31.60
2018-09-28T15:02:48.294Z,32.00
2018-09-28T15:05:16.744Z,31.00
2018-09-28T15:07:45.251Z,30.40
2018-09-28T15:10:13.732Z,31.20
2018-09-28T15:12:42.430Z,31.40
2018-09-28T15:15:10.986Z,32.60
2018-09-28T15:17:39.532Z,32.90
2018-09-28T15:20:08.026Z,33.40
2018-09-28T15:22:36.632Z,33.30
2018-09-28T15:25:05.087Z,33.20
2018-09-28T15:27:33.735Z,33.50
2018-09-28T15:30:02.928Z,33.90
2018-09-28T15:32:31.711Z,35.00
2018-09-28T15:35:00.460Z,33.40
2018-09-28T15:37:29.457Z,34.40
2018-09-28T15:39:58.008Z,33.80
2018-09-28T15:42:26.632Z,34.30
2018-09-28T15:44:55.165Z,34.90
2018-09-28T15:47:23.609Z,35.30
2018-09-28T15:49:51.976Z,35.50
2018-09-28T15:52:20.400Z,35.10
2018-09-28T15:54:49.261Z,35.80
2018-09-28T15:57:17.822Z,35.60
2018-09-28T15:59:46.524Z,35.10
2018-09-28T16:02:15.228Z,35.00
2018-09-28T16:04:43.982Z,35.40
2018-09-28T16:07:12.573Z,35.40
2018-09-28T16:09:41.145Z,35.10
2018-09-28T16:12:09.933Z,36.50
2018-09-28T16:14:38.479Z,35.30
2018-09-28T16:17:07.044Z,36.00
2018-09-28T16:19:35.619Z,35.40
2018-09-28T16:22:04.302Z,36.20
2018-09-28T16:24:32.958Z,36.40
2018-09-28T16:27:01.567Z,36.50
2018-09-28T16:29:30.309Z,36.90
2018-09-28T16:31:59.130Z,36.60
2018-09-28T16:34:27.834Z,36.50
2018-09-28T16:36:56.308Z,37.10
2018-09-28T16:39:24.738Z,37.30
2018-09-28T16:41:53.202Z,37.50
2018-09-28T16:44:21.747Z,37.80
2018-09-28T16:46:50.355Z,37.60
2018-09-28T16:49:20.755Z,37.90
2018-09-28T16:51:49.306Z,38.90
2018-09-28T16:54:17.912Z,38.90
2018-09-28T16:56:46.568Z,38.30
2018-09-28T16:59:15.193Z,38.70
2018-09-28T17:01:43.825Z,39.80
2018-09-28T17:04:12.445Z,40.10
2018-09-28T17:06:41.187Z,39.40
2018-09-28T17:09:10.528Z,39.70
2018-09-28T17:11:39.119Z,39.60
2018-09-28T17:14:07.577Z,40.00
2018-09-28T17:16:36.041Z,40.80
2018-09-28T17:19:04.617Z,40.90
2018-09-28T17:21:33.147Z,40.90
2018-09-28T17:24:01.698Z,41.80
2018-09-28T17:26:30.140Z,41.70
2018-09-28T17:28:58.599Z,41.80
2018-09-28T17:31:27.045Z,42.00
2018-09-28T17:33:55.522Z,43.50
2018-09-28T17:36:24.119Z,43.00
2018-09-28T17:38:52.527Z,42.90
2018-09-28T17:41:20.946Z,43.90
2018-09-28T17:43:49.409Z,43.50
2018-09-28T17:46:17.761Z,43.40
2018-09-28T17:48:46.264Z,43.80
2018-09-28T17:51:14.607Z,44.10
2018-09-28T17:53:42.967Z,44.70
2018-09-28T17:56:11.346Z,44.90
2018-09-28T17:58:39.671Z,44.80
2018-09-28T18:01:08.316Z,44.30
2018-09-28T18:03:36.687Z,44.50
2018-09-28T18:06:06.426Z,45.60
2018-09-28T18:08:34.858Z,45.80
2018-09-28T18:11:03.969Z,45.20
2018-09-28T18:13:32.310Z,45.30
2018-09-28T18:16:00.682Z,45.50
2018-09-28T18:18:29.049Z,45.10
2018-09-28T18:20:57.411Z,45.80
2018-09-28T18:23:25.948Z,46.10
2018-09-28T18:25:54.329Z,46.30
2018-09-28T18:28:22.798Z,46.30
2018-09-28T18:30:51.219Z,46.50
2018-09-28T18:33:19.622Z,46.20
2018-09-28T18:35:48.033Z,46.60
2018-09-28T18:38:16.410Z,46.60
2018-09-28T18:40:44.779Z,46.80
2018-09-28T18:43:13.104Z,47.50
2018-09-28T18:45:41.567Z,47.30
2018-09-28T18:48:10.048Z,47.00
2018-09-28T18:50:38.503Z,48.00
2018-09-28T18:53:07.508Z,47.50
2018-09-28T18:55:36.115Z,47.50
2018-09-28T18:58:04.469Z,47.50
2018-09-28T19:00:32.961Z,48.00
2018-09-28T19:03:01.332Z,47.80
2018-09-28T19:05:29.916Z,48.20
2018-09-28T19:07:58.312Z,48.40
2018-09-28T19:10:26.676Z,49.20
2018-09-28T19:12:55.190Z,49.10
2018-09-28T19:15:23.481Z,49.50
2018-09-28T19:17:51.951Z,49.60
2018-09-28T19:20:20.278Z,50.90
2018-09-28T19:22:48.858Z,49.90
2018-09-28T19:25:17.162Z,50.10
2018-09-28T19:27:45.538Z,50.90
2018-09-28T19:30:14.006Z,50.80
2018-09-28T19:32:42.573Z,51.90
2018-09-28T19:35:11.255Z,52.10
2018-09-28T19:37:39.903Z,51.00
2018-09-28T19:40:08.360Z,52.00
2018-09-28T19:42:36.902Z,51.70
2018-09-28T19:45:09.137Z,52.00
2018-09-28T19:47:37.647Z,51.70
2018-09-28T19:50:06.145Z,52.00
2018-09-28T19:52:34.758Z,52.40
2018-09-28T19:55:03.185Z,52.30
2018-09-28T19:57:31.860Z,52.40
2018-09-28T20:00:00.418Z,52.40
2018-09-28T20:02:28.914Z,52.70
2018-09-28T20:04:57.314Z,53.40
2018-09-28T20:07:25.728Z,53.80
2018-09-28T20:09:54.259Z,53.30
2018-09-28T20:12:22.680Z,52.80
2018-09-28T20:14:51.144Z,53.90
2018-09-28T20:17:19.685Z,53.60
2018-09-28T20:19:48.190Z,53.60
2018-09-28T20:22:16.619Z,54.00
2018-09-28T20:24:45.103Z,55.10
2018-09-28T20:27:14.560Z,54.50
2018-09-28T20:29:43.117Z,54.60
2018-09-28T20:32:11.629Z,55.20
2018-09-28T20:34:40.262Z,55.00
2018-09-28T20:37:08.969Z,55.30
2018-09-28T20:39:37.526Z,55.50
2018-09-28T20:42:05.984Z,55.70
2018-09-28T20:44:34.375Z,56.40
2018-09-28T20:47:02.881Z,56.40
2018-09-28T20:49:31.635Z,56.40
2018-09-28T20:52:00.291Z,56.60
2018-09-28T20:54:28.930Z,56.80
2018-09-28T20:56:57.428Z,57.40
2018-09-28T20:59:26.035Z,57.20
2018-09-28T21:01:54.463Z,57.60
2018-09-28T21:04:22.919Z,59.30
2018-09-28T21:06:51.488Z,60.20
2018-09-28T21:09:19.898Z,61.40
2018-09-28T21:11:48.447Z,59.50
2018-09-28T21:14:16.933Z,59.30
2018-09-28T21:16:45.562Z,62.50
2018-09-28T21:19:14.011Z,62.00
2018-09-28T21:21:42.402Z,59.00
2018-09-28T21:24:10.929Z,57.40
2018-09-28T21:26:39.351Z,57.40
2018-09-28T21:29:07.840Z,57.80
2018-09-28T21:31:36.322Z,58.20
2018-09-28T21:34:04.765Z,58.50
2018-09-28T21:36:33.144Z,58.60
2018-09-28T21:39:01.620Z,58.90
2018-09-28T21:41:30.010Z,59.20
2018-09-28T21:43:58.432Z,59.80
2018-09-28T21:46:27.687Z,59.80
2018-09-28T21:48:56.141Z,60.30
2018-09-28T21:51:24.515Z,60.00
2018-09-28T21:54:07.961Z,60.20
2018-09-28T21:56:36.392Z,60.50
2018-09-28T21:59:04.855Z,60.80
2018-09-28T22:01:33.304Z,61.70
2018-09-28T22:04:01.800Z,61.40
2018-09-28T22:06:42.281Z,61.60
2018-09-28T22:09:25.753Z,62.00
2018-09-28T22:11:54.144Z,61.90
2018-09-28T22:14:22.732Z,61.80
2018-09-28T22:16:51.168Z,62.10
2018-09-28T22:19:19.562Z,62.40
2018-09-28T22:21:47.998Z,62.80
2018-09-28T22:24:16.495Z,62.90
2018-09-28T22:26:45.605Z,64.10
2018-09-28T22:29:14.079Z,63.30
2018-09-28T22:31:42.481Z,63.30
2018-09-28T22:34:10.973Z,64.20
2018-09-28T22:36:39.426Z,65.10
2018-09-28T22:39:09.643Z,64.60
2018-09-28T22:41:38.241Z,65.30
2018-09-28T22:44:06.900Z,65.20
2018-09-28T22:46:35.321Z,65.40
2018-09-28T22:49:03.976Z,64.50
2018-09-28T22:51:32.429Z,65.40
2018-09-28T22:54:00.909Z,65.30
2018-09-28T22:56:29.413Z,65.20
2018-09-28T22:58:57.824Z,65.40
2018-09-28T23:01:26.262Z,65.70
2018-09-28T23:03:54.695Z,65.40
2018-09-28T23:06:23.109Z,65.90
2018-09-28T23:08:51.591Z,66.30
2018-09-28T23:11:20.054Z,66.30
2018-09-28T23:13:48.544Z,66.60
2018-09-28T23:16:16.989Z,66.90
2018-09-28T23:18:45.432Z,66.30
2018-09-28T23:21:13.814Z,66.80
2018-09-28T23:23:42.293Z,66.50
2018-09-28T23:26:10.702Z,67.30
2018-09-28T23:28:39.202Z,66.90
2018-09-28T23:31:07.812Z,68.10
2018-09-28T23:33:36.220Z,67.80
2018-09-28T23:36:04.703Z,67.20
2018-09-28T23:38:33.111Z,67.30
2018-09-28T23:41:01.586Z,67.80
2018-09-28T23:43:30.087Z,67.60
2018-09-28T23:45:58.486Z,68.40
2018-09-28T23:48:26.845Z,68.00
2018-09-28T23:50:55.267Z,68.10
2018-09-28T23:53:23.774Z,68.20
2018-09-28T23:55:52.198Z,68.20
2018-09-28T23:58:20.597Z,68.60
